Time;durP1;ratioP1;P1;durP2;ratioP2;P2;SDS_P1;SDS_P2;PMS_P1;PMS_P2;Temp;Humidity;BMP_temperature;BMP_pressure;BME280_temperature;BME280_humidity;BME280_pressure;Samples;Min_cycle;Max_cycle;Signal;HPM_P1;HPM_P2
2023/01/30 00:01:45;;;;;;;;;;;;;;;26.27;47.45;97258.83;588597;241;65042;-77
2023/01/30 00:04:13;;;;;;;;;;;;;;;26.26;47.92;97265.33;588607;241;66857;-77
2023/01/30 00:06:41;;;;;;;;;;;;;;;26.25;48.11;97261.05;588578;241;66482;-78
2023/01/30 00:09:10;;;;;;;;;;;;;;;26.24;49.50;97262.13;588571;241;64929;-78
2023/01/30 00:11:37;;;;;;;;;;;;;;;26.23;48.94;97255.15;588596;241;66568;-78
2023/01/30 00:14:05;;;;;;;;;;;;;;;26.20;48.01;97259.23;583396;241;69462;-77
2023/01/30 00:16:32;;;;;;;;;;;;;;;26.20;48.27;97248.46;582450;243;64882;-78
2023/01/30 00:19:00;;;;;;;;;;;;;;;26.20;48.97;97253.84;582450;243;68639;-78
2023/01/30 00:21:27;;;;;;;;;;;;;;;26.19;48.41;97249.57;582464;243;66500;-78
2023/01/30 00:23:55;;;;;;;;;;;;;;;26.18;48.71;97250.65;582441;243;62888;-79
2023/01/30 00:26:22;;;;;;;;;;;;;;;26.16;49.10;97244.75;582517;243;68709;-78
2023/01/30 00:28:50;;;;;;;;;;;;;;;26.17;49.51;97249.06;582475;243;66293;-78
2023/01/30 00:31:17;;;;;;;;;;;;;;;26.16;47.41;97249.34;582419;243;62824;-77
2023/01/30 00:33:44;;;;;;;;;;;;;;;26.15;48.74;97248.55;582462;243;68704;-78
2023/01/30 00:36:12;;;;;;;;;;;;;;;26.14;47.92;97241.59;582444;243;68846;-78
2023/01/30 00:38:39;;;;;;;;;;;;;;;26.12;48.69;97246.46;582487;243;66124;-77
2023/01/30 00:41:09;;;;;;;;;;;;;;;26.12;47.76;97249.16;582473;243;68713;-78
2023/01/30 00:49:08;;;;;;;;;;;;;;;26.10;48.77;97251.34;582465;243;68766;-78
2023/01/30 00:51:36;;;;;;;;;;;;;;;26.08;48.32;97246.27;582443;243;68755;-78
2023/01/30 00:54:03;;;;;;;;;;;;;;;26.07;49.63;97244.66;582526;243;64882;-77
2023/01/30 00:56:31;;;;;;;;;;;;;;;26.06;48.58;97253.05;582415;243;65742;-77
2023/01/30 00:58:59;;;;;;;;;;;;;;;26.06;48.10;97247.66;582453;243;66471;-77
2023/01/30 01:01:26;;;;;;;;;;;;;;;26.04;49.79;97244.47;582419;243;63743;-77
2023/01/30 01:03:54;;;;;;;;;;;;;;;26.03;49.57;97243.67;582462;243;69483;-78
2023/01/30 01:06:22;;;;;;;;;;;;;;;26.01;47.79;97240.47;582488;243;68583;-78
2023/01/30 01:08:49;;;;;;;;;;;;;;;26.02;49.19;97233.19;582414;243;66171;-78
2023/01/30 01:11:23;;;;;;;;;;;;;;;26.01;48.41;97239.67;582431;243;68669;-78
2023/01/30 01:13:47;;;;;;;;;;;;;;;26.00;47.76;97232.67;582356;241;69041;-78
2023/01/30 01:16:14;;;;;;;;;;;;;;;25.99;48.87;97229.19;582462;243;65104;-77
2023/01/30 01:18:41;;;;;;;;;;;;;;;25.99;48.63;97225.70;582456;243;68865;-78
2023/01/30 01:21:09;;;;;;;;;;;;;;;25.97;49.65;97228.69;582490;243;68719;-77
2023/01/30 01:23:36;;;;;;;;;;;;;;;25.97;49.44;97223.30;582421;243;65236;-77
2023/01/30 01:26:04;;;;;;;;;;;;;;;25.95;49.67;97220.13;582443;243;68761;-77
2023/01/30 01:28:33;;;;;;;;;;;;;;;25.95;47.72;97222.82;582495;243;46027;-77
2023/01/30 01:31:02;;;;;;;;;;;;;;;25.94;50.29;97217.72;582450;243;65148;-78
2023/01/30 01:33:29;;;;;;;;;;;;;;;25.93;50.10;97226.91;582355;243;68813;-77
2023/01/30 01:35:57;;;;;;;;;;;;;;;25.92;48.77;97220.73;582389;243;69051;-70
2023/01/30 01:38:25;;;;;;;;;;;;;;;25.90;48.64;97220.22;582438;243;63763;-70
2023/01/30 01:41:02;;;;;;;;;;;;;;;25.91;49.69;97224.50;582461;243;66590;-70
2023/01/30 01:43:34;;;;;;;;;;;;;;;25.90;49.26;97222.91;582480;243;68360;-69
2023/01/30 01:46:12;;;;;;;;;;;;;;;25.88;50.04;97220.50;582311;243;62880;-69
2023/01/30 01:48:44;;;;;;;;;;;;;;;25.87;49.41;97218.92;582232;243;68758;-69
2023/01/30 01:51:13;;;;;;;;;;;;;;;25.87;49.34;97212.74;582355;243;68863;-70
2023/01/30 01:53:42;;;;;;;;;;;;;;;25.85;48.37;97215.72;582440;243;64945;-70
2023/01/30 01:56:10;;;;;;;;;;;;;;;25.85;49.03;97214.92;582383;243;69730;-70
2023/01/30 01:58:39;;;;;;;;;;;;;;;25.83;47.95;97207.13;582454;243;68553;-70
2023/01/30 02:01:07;;;;;;;;;;;;;;;25.83;50.63;97206.31;582443;243;65023;-70
2023/01/30 02:03:36;;;;;;;;;;;;;;;25.81;48.21;97198.55;582456;243;66680;-70
2023/01/30 02:06:07;;;;;;;;;;;;;;;25.80;49.70;97196.14;582459;243;68703;-70
2023/01/30 02:08:44;;;;;;;;;;;;;;;25.80;49.26;97194.24;582516;243;45270;-70
2023/01/30 02:11:22;;;;;;;;;;;;;;;25.78;49.03;97188.37;582192;243;68250;-68
2023/01/30 02:13:50;;;;;;;;;;;;;;;25.78;49.12;97191.07;586970;241;68628;-70
2023/01/30 02:16:19;;;;;;;;;;;;;;;25.77;48.95;97186.77;588607;241;42258;-77
2023/01/30 02:18:47;;;;;;;;;;;;;;;25.77;50.52;97183.28;588579;241;69088;-77
2023/01/30 02:21:32;;;;;;;;;;;;;;;25.76;49.83;97189.77;588581;241;68557;-78
2023/01/30 02:24:01;;;;;;;;;;;;;;;25.75;50.22;97180.08;588534;241;65039;-78
2023/01/30 02:26:30;;;;;;;;;;;;;;;25.73;48.98;97175.02;588105;241;68691;-77
2023/01/30 02:29:16;;;;;;;;;;;;;;;25.72;49.14;97176.09;588553;241;68727;-77
2023/01/30 02:31:45;;;;;;;;;;;;;;;25.72;49.86;97169.91;588565;241;64916;-76
2023/01/30 02:34:18;;;;;;;;;;;;;;;25.71;51.23;97165.64;588610;241;66074;-77
2023/01/30 02:36:50;;;;;;;;;;;;;;;25.69;49.27;97169.41;588154;241;66497;-77
2023/01/30 02:39:28;;;;;;;;;;;;;;;25.68;49.83;97156.27;588566;241;62765;-77
2023/01/30 02:42:13;;;;;;;;;;;;;;;25.67;49.84;97160.86;588219;241;68670;-77
2023/01/30 02:44:43;;;;;;;;;;;;;;;25.66;49.36;97155.75;588529;241;68964;-76
2023/01/30 02:47:15;;;;;;;;;;;;;;;25.66;49.52;97153.06;587243;241;63820;-77
2023/01/30 02:49:44;;;;;;;;;;;;;;;25.64;50.24;97155.25;588591;239;68643;-78
2023/01/30 02:52:12;;;;;;;;;;;;;;;25.63;49.13;97153.66;588445;241;68596;-78
2023/01/30 02:54:40;;;;;;;;;;;;;;;25.62;49.77;97155.56;588590;241;62743;-78
2023/01/30 02:57:18;;;;;;;;;;;;;;;25.62;49.78;97162.84;588570;241;66535;-78
2023/01/30 02:59:48;;;;;;;;;;;;;;;25.61;49.64;97151.25;588482;241;68169;-77
2023/01/30 03:02:20;;;;;;;;;;;;;;;25.60;50.25;97159.64;588631;241;65047;-76
2023/01/30 03:04:59;;;;;;;;;;;;;;;25.60;50.07;97163.13;588636;241;68386;-77
2023/01/30 03:07:41;;;;;;;;;;;;;;;25.58;50.45;97159.92;588611;241;68656;-76
2023/01/30 03:10:16;;;;;;;;;;;;;;;25.58;50.25;97164.52;588625;241;65150;-77
2023/01/30 03:13:02;;;;;;;;;;;;;;;25.57;50.15;97163.73;588636;239;47291;-78
2023/01/30 03:15:37;;;;;;;;;;;;;;;25.55;49.07;97162.42;588389;241;68628;-77
2023/01/30 03:18:05;;;;;;;;;;;;;;;25.55;49.73;97162.42;588600;241;63074;-77
2023/01/30 03:20:34;;;;;;;;;;;;;;;25.54;50.04;97166.22;588572;241;68389;-77
2023/01/30 03:23:01;;;;;;;;;;;;;;;25.52;49.13;97154.95;588565;241;68591;-77
2023/01/30 03:25:29;;;;;;;;;;;;;;;25.52;49.05;97165.72;588570;241;65895;-77
2023/01/30 03:27:57;;;;;;;;;;;;;;;25.52;50.31;97154.95;588558;241;69067;-77
2023/01/30 03:30:25;;;;;;;;;;;;;;;25.51;49.42;97156.02;588586;241;68382;-77
2023/01/30 03:32:56;;;;;;;;;;;;;;;25.49;50.12;97161.72;588533;241;47142;-77
2023/01/30 03:35:24;;;;;;;;;;;;;;;25.48;49.49;97157.41;588509;241;69068;-77
2023/01/30 03:37:51;;;;;;;;;;;;;;;25.47;49.32;97164.69;588394;241;68728;-78
2023/01/30 03:40:19;;;;;;;;;;;;;;;25.47;49.60;97161.21;587751;241;63772;-77
2023/01/30 03:42:47;;;;;;;;;;;;;;;25.46;49.72;97163.11;587601;241;66131;-77
2023/01/30 03:45:14;;;;;;;;;;;;;;;25.45;49.34;97158.84;587450;241;69197;-76
2023/01/30 03:47:42;;;;;;;;;;;;;;;25.46;49.13;97156.94;588427;241;65091;-77
2023/01/30 03:50:10;;;;;;;;;;;;;;;25.44;49.75;97157.22;588390;241;68841;-77
2023/01/30 03:52:38;;;;;;;;;;;;;;;25.43;48.56;97154.84;588384;241;68626;-77
2023/01/30 03:55:07;;;;;;;;;;;;;;;25.42;48.46;97158.61;588596;241;41476;-77
2023/01/30 03:57:35;;;;;;;;;;;;;;;25.41;49.54;97155.12;588518;241;69243;-77
2023/01/30 04:00:03;;;;;;;;;;;;;;;25.40;48.63;97156.23;588588;241;66440;-77
2023/01/30 04:02:33;;;;;;;;;;;;;;;25.40;49.34;97156.23;588567;241;46322;-77
2023/01/30 04:05:00;;;;;;;;;;;;;;;25.40;49.97;97155.41;588564;241;69169;-77
2023/01/30 04:07:29;;;;;;;;;;;;;;;25.38;49.43;97152.23;588582;241;69089;-77
2023/01/30 04:09:57;;;;;;;;;;;;;;;25.38;50.96;97152.23;588586;241;65186;-77
2023/01/30 04:12:24;;;;;;;;;;;;;;;25.37;48.94;97156.00;588512;241;68663;-77
2023/01/30 04:14:54;;;;;;;;;;;;;;;25.36;49.24;97155.21;588672;241;45694;-77
2023/01/30 04:17:23;;;;;;;;;;;;;;;25.36;50.22;97159.80;588458;239;44983;-77
2023/01/30 04:19:53;;;;;;;;;;;;;;;25.34;48.83;97145.84;587909;241;48486;-77
2023/01/30 04:22:20;;;;;;;;;;;;;;;25.33;48.67;97147.73;588548;241;69119;-77
2023/01/30 04:24:48;;;;;;;;;;;;;;;25.33;48.96;97150.42;588557;241;64878;-77
2023/01/30 04:27:15;;;;;;;;;;;;;;;25.31;49.40;97144.53;588638;241;68838;-77
2023/01/30 04:29:45;;;;;;;;;;;;;;;25.30;50.03;97151.02;588454;241;45784;-77
2023/01/30 04:32:12;;;;;;;;;;;;;;;25.29;50.30;97143.23;588591;241;62814;-77
2023/01/30 04:34:40;;;;;;;;;;;;;;;25.29;49.58;97144.05;588578;241;68697;-77
2023/01/30 04:37:08;;;;;;;;;;;;;;;25.28;49.54;97142.44;588515;241;66384;-77
2023/01/30 04:39:37;;;;;;;;;;;;;;;25.28;50.30;97142.44;588585;241;65737;-77
2023/01/30 04:42:05;;;;;;;;;;;;;;;25.27;48.98;97140.86;588611;241;69394;-77
2023/01/30 04:44:34;;;;;;;;;;;;;;;25.25;49.87;97146.52;588580;241;45071;-76
2023/01/30 04:47:09;;;;;;;;;;;;;;;25.24;49.76;97146.83;588568;241;43816;-77
2023/01/30 04:49:37;;;;;;;;;;;;;;;25.23;50.67;97140.63;588550;241;68714;-77
2023/01/30 04:52:05;;;;;;;;;;;;;;;25.22;49.91;97144.42;588584;241;66425;-77
2023/01/30 04:54:33;;;;;;;;;;;;;;;25.22;49.67;97149.02;588631;241;64909;-77
2023/01/30 04:57:01;;;;;;;;;;;;;;;25.21;49.62;97142.84;588552;241;69051;-77
2023/01/30 04:59:28;;;;;;;;;;;;;;;25.20;48.76;97140.43;588583;241;68363;-78
2023/01/30 05:01:57;;;;;;;;;;;;;;;25.20;50.19;97135.05;588595;241;64890;-78
2023/01/30 05:04:25;;;;;;;;;;;;;;;25.18;49.32;97134.54;588566;241;68709;-77
2023/01/30 05:06:52;;;;;;;;;;;;;;;25.17;48.23;97135.64;588621;241;68734;-78
2023/01/30 05:09:20;;;;;;;;;;;;;;;25.17;49.94;97132.95;588587;241;64965;-78
2023/01/30 05:11:47;;;;;;;;;;;;;;;25.15;49.89;97127.86;588522;241;68641;-77
2023/01/30 05:14:15;;;;;;;;;;;;;;;25.14;49.50;97131.62;588571;241;68709;-78
2023/01/30 05:16:42;;;;;;;;;;;;;;;25.13;48.69;97126.55;588573;241;62940;-78
2023/01/30 05:19:12;;;;;;;;;;;;;;;25.13;49.81;97129.25;588600;241;66456;-77
2023/01/30 05:21:40;;;;;;;;;;;;;;;25.13;49.06;97134.63;588630;241;68646;-78
2023/01/30 05:24:08;;;;;;;;;;;;;;;25.12;49.41;97131.11;588576;241;62737;-77
2023/01/30 05:26:36;;;;;;;;;;;;;;;25.11;48.77;97131.42;588575;241;68894;-77
2023/01/30 05:29:03;;;;;;;;;;;;;;;25.10;50.54;97124.43;588589;241;68391;-76
2023/01/30 05:31:31;;;;;;;;;;;;;;;25.10;50.04;97130.63;588564;241;64859;-77
2023/01/30 05:33:58;;;;;;;;;;;;;;;25.09;48.68;97136.29;588620;241;66430;-77
2023/01/30 05:36:26;;;;;;;;;;;;;;;25.09;48.25;97130.91;588560;241;68906;-77
2023/01/30 05:38:53;;;;;;;;;;;;;;;25.09;49.91;97134.39;588576;241;65179;-77
2023/01/30 05:41:21;;;;;;;;;;;;;;;25.09;49.58;97133.60;588558;241;68741;-78
2023/01/30 05:43:49;;;;;;;;;;;;;;;25.08;50.02;97134.70;588555;241;66483;-70
2023/01/30 05:46:17;;;;;;;;;;;;;;;25.08;49.95;97142.77;588604;241;65185;-68
2023/01/30 05:48:45;;;;;;;;;;;;;;;25.07;49.04;97139.27;588496;241;66555;-67
2023/01/30 05:51:17;;;;;;;;;;;;;;;25.07;48.62;97136.57;588548;241;66486;-68
2023/01/30 05:53:45;;;;;;;;;;;;;;;25.08;49.92;97142.77;588592;241;62783;-77
2023/01/30 05:56:12;;;;;;;;;;;;;;;25.07;49.09;97143.84;588016;241;66178;-77
2023/01/30 05:58:40;;;;;;;;;;;;;;;25.06;50.01;97145.74;587774;241;66358;-77
2023/01/30 06:01:09;;;;;;;;;;;;;;;25.07;50.44;97150.02;588349;241;62918;-76
2023/01/30 06:03:36;;;;;;;;;;;;;;;25.06;50.02;97145.74;588570;241;66807;-77
2023/01/30 06:06:05;;;;;;;;;;;;;;;25.06;51.61;97145.74;588575;241;68938;-77
2023/01/30 06:08:33;;;;;;;;;;;;;;;25.06;51.95;97148.43;588551;241;63682;-77
2023/01/30 06:11:01;;;;;;;;;;;;;;;25.06;51.60;97153.81;588559;241;66603;-77
2023/01/30 06:13:29;;;;;;;;;;;;;;;25.05;51.01;97151.43;588487;241;68789;-77
2023/01/30 06:15:56;;;;;;;;;;;;;;;25.05;50.86;97146.05;588564;241;64947;-69
2023/01/30 06:18:24;;;;;;;;;;;;;;;25.05;49.42;97152.22;588577;241;68810;-68
2023/01/30 06:20:52;;;;;;;;;;;;;;;25.05;50.38;97149.53;588563;241;68584;-69
2023/01/30 06:23:22;;;;;;;;;;;;;;;25.05;51.69;97154.12;588525;241;64965;-68
2023/01/30 06:25:50;;;;;;;;;;;;;;;25.05;50.28;97156.81;588603;241;68671;-68
2023/01/30 06:28:18;;;;;;;;;;;;;;;25.05;50.22;97162.98;588561;241;68583;-69
2023/01/30 06:30:46;;;;;;;;;;;;;;;25.05;49.49;97159.50;588556;241;63910;-69
2023/01/30 06:33:14;;;;;;;;;;;;;;;25.05;50.29;97160.29;588565;241;66443;-69
2023/01/30 06:35:42;;;;;;;;;;;;;;;25.05;51.35;97162.19;588554;241;66474;-69
2023/01/30 06:38:10;;;;;;;;;;;;;;;25.03;50.44;97157.87;588569;241;62805;-69
2023/01/30 06:40:38;;;;;;;;;;;;;;;25.05;49.88;97152.22;588560;241;68793;-69
2023/01/30 06:43:05;;;;;;;;;;;;;;;25.05;50.91;97160.29;588602;241;68474;-69
2023/01/30 06:45:33;;;;;;;;;;;;;;;25.05;50.74;97154.12;588553;241;64932;-69
2023/01/30 06:48:00;;;;;;;;;;;;;;;25.05;51.12;97154.91;588557;241;68823;-69
2023/01/30 06:50:28;;;;;;;;;;;;;;;25.05;50.37;97162.19;588582;241;68889;-69
2023/01/30 06:52:58;;;;;;;;;;;;;;;25.04;50.95;97153.30;588417;241;62618;-69
2023/01/30 06:55:27;;;;;;;;;;;;;;;25.03;50.98;97160.57;586984;239;66863;-69
2023/01/30 06:58:14;;;;;;;;;;;;;;;25.05;50.24;97159.50;588534;241;68594;-70
2023/01/30 07:00:42;;;;;;;;;;;;;;;25.04;45.40;97161.36;587899;241;65243;-70
2023/01/30 07:03:11;;;;;;;;;;;;;;;25.03;50.76;97163.26;588500;241;68897;-74
2023/01/30 07:05:40;;;;;;;;;;;;;;;25.03;50.19;97163.26;588306;241;66390;-69
2023/01/30 07:08:07;;;;;;;;;;;;;;;25.02;45.67;97155.50;588472;241;62845;-69
2023/01/30 07:10:35;;;;;;;;;;;;;;;25.03;50.08;97165.16;588373;241;65916;-70
2023/01/30 07:13:03;;;;;;;;;;;;;;;25.03;50.71;97163.26;585953;241;66291;-68
2023/01/30 07:15:31;;;;;;;;;;;;;;;25.02;45.01;97156.30;582304;243;64915;-70
2023/01/30 07:17:59;;;;;;;;;;;;;;;25.02;48.74;97156.30;582539;243;68632;-69
2023/01/30 07:20:28;;;;;;;;;;;;;;;25.02;49.10;97166.26;582458;243;68339;-75
2023/01/30 07:22:56;;;;;;;;;;;;;;;25.02;49.22;97155.50;582480;243;64955;-75
2023/01/30 07:25:24;;;;;;;;;;;;;;;25.02;47.22;97158.19;582506;243;68528;-75
2023/01/30 07:27:53;;;;;;;;;;;;;;;25.03;50.28;97157.87;582322;242;68290;-76
2023/01/30 07:30:20;;;;;;;;;;;;;;;25.05;51.21;97154.91;582411;243;62750;-72
2023/01/30 07:32:53;;;;;;;;;;;;;;;25.07;49.89;97152.70;582480;243;68524;-75
2023/01/30 07:35:21;;;;;;;;;;;;;;;25.08;50.57;97154.32;582280;243;66447;-76
2023/01/30 07:37:52;;;;;;;;;;;;;;;25.09;49.30;97152.42;582497;242;46671;-77
2023/01/30 07:40:20;;;;;;;;;;;;;;;25.10;50.17;97151.32;582418;243;68545;-77
2023/01/30 07:42:58;;;;;;;;;;;;;;;25.11;50.17;97150.25;582364;243;68134;-75
2023/01/30 07:45:26;;;;;;;;;;;;;;;25.12;49.09;97149.94;582420;243;63066;-77
2023/01/30 07:47:54;;;;;;;;;;;;;;;25.13;48.90;97151.55;582458;240;68487;-77
2023/01/30 07:50:21;;;;;;;;;;;;;;;25.14;49.72;97146.97;582406;243;68510;-77
2023/01/30 07:52:49;;;;;;;;;;;;;;;25.16;50.30;97155.58;582462;243;65190;-75
2023/01/30 07:55:16;;;;;;;;;;;;;;;25.16;49.96;97144.81;582432;243;68702;-73
2023/01/30 07:57:44;;;;;;;;;;;;;;;25.17;49.43;97135.64;582364;243;66212;-75
2023/01/30 08:00:12;;;;;;;;;;;;;;;25.17;49.04;97141.81;582438;243;62821;-78
2023/01/30 08:02:39;;;;;;;;;;;;;;;25.17;49.53;97144.51;582450;243;68698;-77
2023/01/30 08:05:07;;;;;;;;;;;;;;;25.17;49.55;97139.12;582360;243;68856;-78
2023/01/30 08:07:34;;;;;;;;;;;;;;;25.21;50.03;97142.05;582408;243;65207;-76
2023/01/30 08:10:02;;;;;;;;;;;;;;;25.21;49.47;97136.66;582374;243;68735;-76
2023/01/30 08:12:30;;;;;;;;;;;;;;;25.21;49.31;97137.46;582387;240;69127;-75
2023/01/30 08:14:57;;;;;;;;;;;;;;;25.22;49.04;97143.63;582458;243;64895;-77
2023/01/30 08:17:26;;;;;;;;;;;;;;;25.23;50.03;97140.63;582400;243;68695;-74
2023/01/30 08:19:54;;;;;;;;;;;;;;;25.24;49.25;97141.45;582390;243;68613;-73
2023/01/30 08:22:21;;;;;;;;;;;;;;;25.25;50.27;97137.66;582460;243;65033;-68
2023/01/30 08:24:49;;;;;;;;;;;;;;;25.25;49.73;97137.66;582461;243;66325;-73
2023/01/30 08:27:17;;;;;;;;;;;;;;;25.25;49.57;97133.07;582400;243;69408;-75
2023/01/30 08:29:47;;;;;;;;;;;;;;;25.26;49.37;97131.17;582359;243;64928;-75
2023/01/30 08:32:14;;;;;;;;;;;;;;;25.27;48.70;97130.09;582363;243;68878;-77
2023/01/30 08:34:42;;;;;;;;;;;;;;;25.28;49.48;97125.51;582389;243;66649;-76
2023/01/30 08:37:09;;;;;;;;;;;;;;;25.29;50.69;97132.47;582487;243;65104;-76
2023/01/30 08:39:37;;;;;;;;;;;;;;;25.29;49.59;97127.09;582409;243;68764;-73
2023/01/30 08:42:04;;;;;;;;;;;;;;;25.29;49.98;97129.78;582406;243;68528;-74
2023/01/30 08:44:32;;;;;;;;;;;;;;;25.30;48.70;97123.33;582457;243;64884;-75
2023/01/30 08:46:59;;;;;;;;;;;;;;;25.30;48.93;97121.44;582382;243;68691;-74
2023/01/30 08:49:26;;;;;;;;;;;;;;;25.31;48.91;97131.09;582420;243;68526;-74
2023/01/30 08:51:54;;;;;;;;;;;;;;;25.32;49.90;97126.50;582455;243;65034;-73
2023/01/30 08:54:23;;;;;;;;;;;;;;;25.30;45.53;97124.12;582341;243;66700;-72
2023/01/30 08:56:51;;;;;;;;;;;;;;;25.33;49.35;97123.53;582455;243;68370;-73
2023/01/30 08:59:18;;;;;;;;;;;;;;;25.34;50.15;97118.94;582395;243;64926;-72
2023/01/30 09:01:45;;;;;;;;;;;;;;;25.34;49.67;97116.25;582351;243;68679;-73
2023/01/30 09:04:13;;;;;;;;;;;;;;;25.35;48.27;97120.55;582478;240;68780;-73
2023/01/30 09:06:40;;;;;;;;;;;;;;;25.36;49.73;97116.76;582450;243;62832;-73
2023/01/30 09:09:08;;;;;;;;;;;;;;;25.35;49.19;97104.41;582370;243;68693;-71
2023/01/30 09:11:35;;;;;;;;;;;;;;;25.35;48.57;97105.20;582422;243;68544;-69
2023/01/30 09:14:03;;;;;;;;;;;;;;;25.35;49.03;97102.52;584897;242;64924;-69
2023/01/30 09:16:30;;;;;;;;;;;;;;;25.34;48.42;97103.59;585471;242;68773;-70
2023/01/30 09:18:58;;;;;;;;;;;;;;;25.35;48.03;97104.41;585449;242;68857;-70
2023/01/30 09:21:25;;;;;;;;;;;;;;;25.34;48.12;97100.90;585405;242;64976;-71
2023/01/30 09:23:54;;;;;;;;;;;;;;;25.33;47.56;97096.63;585394;242;68632;-69
2023/01/30 09:26:22;;;;;;;;;;;;;;;25.34;48.05;97094.73;585420;242;68640;-70
2023/01/30 09:28:49;;;;;;;;;;;;;;;25.33;47.37;97095.83;585409;242;64906;-70
2023/01/30 09:31:17;;;;;;;;;;;;;;;25.34;48.78;97092.04;585451;242;68698;-71
2023/01/30 09:33:44;;;;;;;;;;;;;;;25.33;48.32;97087.77;585460;242;68523;-72
2023/01/30 09:36:12;;;;;;;;;;;;;;;25.33;48.70;97093.14;585413;242;64889;-72
2023/01/30 09:38:39;;;;;;;;;;;;;;;25.33;47.82;97069.73;585446;242;66376;-72
2023/01/30 09:41:23;;;;;;;;;;;;;;;25.33;48.26;97075.11;585502;242;68695;-72
2023/01/30 09:44:01;;;;;;;;;;;;;;;25.33;48.65;97069.73;585355;242;65373;-71
2023/01/30 09:46:43;;;;;;;;;;;;;;;25.33;47.77;97058.17;582175;242;66687;-71
2023/01/30 09:49:14;;;;;;;;;;;;;;;25.33;47.47;97053.59;572123;247;70310;-72
2023/01/30 09:51:49;;;;;;;;;;;;;;;25.32;47.63;97052.00;572141;248;64957;-72
2023/01/30 09:54:19;;;;;;;;;;;;;;;25.34;49.15;97049.00;572154;247;68679;-72
2023/01/30 09:56:46;;;;;;;;;;;;;;;25.33;47.98;97039.34;572240;248;68699;-71
2023/01/30 09:59:21;;;;;;;;;;;;;;;25.33;48.87;97034.76;572210;248;65073;-70
2023/01/30 10:01:53;;;;;;;;;;;;;;;25.32;48.63;97033.17;572233;247;68891;-72
2023/01/30 10:04:27;;;;;;;;;;;;;;;25.32;47.49;97033.17;572013;248;68775;-71
2023/01/30 10:06:59;;;;;;;;;;;;;;;25.32;49.28;97025.11;572193;247;63556;-71
2023/01/30 10:09:28;;;;;;;;;;;;;;;25.33;48.00;97018.62;572187;248;68888;-73
2023/01/30 10:11:59;;;;;;;;;;;;;;;25.32;47.79;97019.72;572122;247;66361;-73
2023/01/30 10:14:31;;;;;;;;;;;;;;;25.32;48.35;97017.03;578414;245;63853;-74
2023/01/30 10:17:15;;;;;;;;;;;;;;;25.32;47.20;97010.83;578423;245;68751;-72
2023/01/30 10:19:47;;;;;;;;;;;;;;;25.32;48.80;97002.77;578355;245;68584;-73
2023/01/30 10:22:16;;;;;;;;;;;;;;;25.32;48.03;96997.38;578421;245;64908;-71
2023/01/30 10:25:00;;;;;;;;;;;;;;;25.31;48.59;96988.52;578460;245;66480;-72
2023/01/30 10:27:29;;;;;;;;;;;;;;;25.31;49.08;96985.83;578297;245;68647;-74
2023/01/30 10:29:58;;;;;;;;;;;;;;;25.31;47.91;96980.45;578386;245;65261;-71
2023/01/30 10:32:40;;;;;;;;;;;;;;;25.32;48.43;96971.31;578453;245;69035;-74
2023/01/30 10:35:09;;;;;;;;;;;;;;;25.32;47.40;96979.38;578388;245;66815;-66
2023/01/30 10:37:41;;;;;;;;;;;;;;;25.32;48.41;96959.72;576756;245;64923;-68
2023/01/30 10:40:19;;;;;;;;;;;;;;;25.32;48.61;96957.03;578226;241;68842;-69
2023/01/30 10:43:05;;;;;;;;;;;;;;;25.32;48.61;96951.66;575373;245;68670;-70
2023/01/30 10:45:51;;;;;;;;;;;;;;;25.32;47.94;96954.34;578540;245;63051;-70
2023/01/30 10:48:36;;;;;;;;;;;;;;;25.32;49.70;96944.41;578449;245;68897;-70
2023/01/30 10:51:05;;;;;;;;;;;;;;;25.32;48.48;96932.83;578530;245;66501;-68
2023/01/30 10:53:34;;;;;;;;;;;;;;;25.31;48.68;96933.94;578529;245;65252;-68
2023/01/30 10:56:06;;;;;;;;;;;;;;;25.32;49.45;96930.14;578413;245;68559;-68
2023/01/30 10:58:41;;;;;;;;;;;;;;;25.31;48.48;96921.28;578276;245;66456;-69
2023/01/30 11:01:14;;;;;;;;;;;;;;;25.31;46.03;96921.28;578190;245;64885;-69
2023/01/30 11:03:42;;;;;;;;;;;;;;;25.31;48.56;96910.52;578400;244;66735;-67
2023/01/30 11:06:22;;;;;;;;;;;;;;;25.31;48.45;96909.73;578384;242;66749;-67
2023/01/30 11:08:50;;;;;;;;;;;;;;;25.30;47.62;96906.25;578478;245;65132;-68
2023/01/30 11:11:22;;;;;;;;;;;;;;;25.30;48.52;96900.87;578485;245;68838;-67
2023/01/30 11:13:50;;;;;;;;;;;;;;;25.30;48.17;96883.94;576721;245;68592;-69
2023/01/30 11:16:18;;;;;;;;;;;;;;;25.29;47.80;96885.84;576070;246;65168;-72
2023/01/30 11:18:49;;;;;;;;;;;;;;;25.30;47.04;96871.28;576184;246;68669;-73
2023/01/30 11:21:21;;;;;;;;;;;;;;;25.30;48.89;96871.28;576186;246;66176;-73
2023/01/30 11:23:50;;;;;;;;;;;;;;;25.31;47.97;96869.38;576076;246;64792;-72
2023/01/30 11:26:19;;;;;;;;;;;;;;;25.30;49.15;96860.52;576092;246;66175;-78
2023/01/30 11:28:46;;;;;;;;;;;;;;;25.32;49.35;96860.20;576098;246;74158;-69
2023/01/30 11:31:15;;;;;;;;;;;;;;;25.32;49.08;96855.64;576131;246;62800;-73
2023/01/30 11:33:44;;;;;;;;;;;;;;;25.33;47.64;96845.67;576213;246;66257;-77
2023/01/30 11:36:25;;;;;;;;;;;;;;;25.33;48.48;96832.22;576137;246;68702;-74
2023/01/30 11:39:00;;;;;;;;;;;;;;;25.34;48.46;96829.22;576097;246;62875;-72
2023/01/30 11:41:28;;;;;;;;;;;;;;;25.34;48.63;96823.83;575954;246;65868;-71
2023/01/30 11:44:03;;;;;;;;;;;;;;;25.35;48.14;96821.97;576106;246;66266;-72
2023/01/30 11:46:32;;;;;;;;;;;;;;;25.34;47.75;96813.08;576090;246;62825;-72
2023/01/30 11:49:01;;;;;;;;;;;;;;;25.36;48.67;96812.78;576092;246;68717;-72
2023/01/30 11:51:29;;;;;;;;;;;;;;;25.36;48.03;96807.41;576073;246;68891;-72
2023/01/30 11:53:58;;;;;;;;;;;;;;;25.35;48.43;96793.16;576109;246;64933;-72
2023/01/30 11:56:42;;;;;;;;;;;;;;;25.36;48.49;96794.75;576121;246;68716;-72
2023/01/30 11:59:17;;;;;;;;;;;;;;;25.37;47.60;96785.59;575917;246;66539;-71
2023/01/30 12:01:45;;;;;;;;;;;;;;;25.37;48.98;96788.28;575928;246;63692;-69
2023/01/30 12:04:13;;;;;;;;;;;;;;;25.37;48.49;96772.14;576094;246;68924;-72
2023/01/30 12:06:42;;;;;;;;;;;;;;;25.39;47.50;96771.82;576122;246;66600;-70
2023/01/30 12:09:29;;;;;;;;;;;;;;;25.39;47.98;96769.13;576135;246;65056;-73
2023/01/30 12:11:58;;;;;;;;;;;;;;;25.39;48.39;96766.44;576076;246;66257;-72
2023/01/30 12:14:27;;;;;;;;;;;;;;;25.38;47.65;96757.58;578983;245;68610;-72
2023/01/30 12:17:02;;;;;;;;;;;;;;;25.38;47.59;96754.10;578979;245;64904;-71
2023/01/30 12:19:47;;;;;;;;;;;;;;;25.38;47.99;96752.20;579086;245;66715;-73
2023/01/30 12:22:35;;;;;;;;;;;;;;;25.38;47.99;96749.52;579233;245;68646;-72
2023/01/30 12:25:04;;;;;;;;;;;;;;;25.38;48.39;96749.52;579113;245;63027;-72
2023/01/30 12:27:38;;;;;;;;;;;;;;;25.38;48.30;96744.13;578724;245;67654;-73
2023/01/30 12:30:10;;;;;;;;;;;;;;;25.38;48.47;96732.59;578632;245;68507;-76
2023/01/30 12:32:39;;;;;;;;;;;;;;;25.38;48.06;96736.06;578456;245;65223;-73
2023/01/30 12:35:17;;;;;;;;;;;;;;;25.39;48.58;96728.78;579174;245;68722;-71
2023/01/30 12:37:52;;;;;;;;;;;;;;;25.39;48.69;96731.47;579125;245;66512;-72
2023/01/30 12:40:24;;;;;;;;;;;;;;;25.38;47.76;96725.30;579185;243;62769;-72
2023/01/30 12:43:01;;;;;;;;;;;;;;;25.39;47.90;96724.19;578704;243;68685;-73
2023/01/30 12:45:30;;;;;;;;;;;;;;;25.40;48.52;96727.67;579087;242;69324;-73
2023/01/30 12:48:08;;;;;;;;;;;;;;;25.40;48.04;96724.98;578822;245;62769;-73
2023/01/30 12:50:50;;;;;;;;;;;;;;;25.41;47.25;96723.90;579027;245;69752;-73
2023/01/30 12:53:19;;;;;;;;;;;;;;;25.41;49.31;96718.52;577997;245;68545;-74
2023/01/30 12:55:54;;;;;;;;;;;;;;;25.41;46.00;96722.00;578126;243;64917;-75
2023/01/30 12:58:23;;;;;;;;;;;;;;;25.43;45.69;96719.80;578634;245;68693;-75
2023/01/30 13:00:54;;;;;;;;;;;;;;;25.43;47.17;96714.42;579059;245;68405;-74
2023/01/30 13:03:26;;;;;;;;;;;;;;;25.44;47.42;96710.63;578943;242;62507;-74
2023/01/30 13:05:55;;;;;;;;;;;;;;;25.45;46.94;96704.16;579192;245;66434;-72
2023/01/30 13:08:25;;;;;;;;;;;;;;;25.46;47.36;96699.56;578994;245;68925;-75